createdAt,value
2018-11-25T00:00:08.485Z,70.94
2018-11-25T00:02:33.566Z,71.01
2018-11-25T00:04:58.591Z,70.76
2018-11-25T00:07:23.645Z,71.15
2018-11-25T00:09:48.788Z,71.27
2018-11-25T00:12:13.868Z,71.24
2018-11-25T00:14:38.923Z,70.92
2018-11-25T00:17:03.978Z,71.01
2018-11-25T00:19:29.042Z,71.00
2018-11-25T00:21:54.097Z,70.78
2018-11-25T00:24:19.182Z,71.67
2018-11-25T00:26:44.248Z,71.49
2018-11-25T00:29:09.291Z,71.45
2018-11-25T00:34:10.989Z,71.26
2018-11-25T00:36:36.056Z,71.12
2018-11-25T00:39:01.124Z,70.80
2018-11-25T00:41:26.226Z,71.15
2018-11-25T00:43:51.317Z,71.19
2018-11-25T00:46:16.415Z,71.23
2018-11-25T00:48:41.495Z,71.20
2018-11-25T00:51:06.854Z,71.09
2018-11-25T00:53:31.955Z,71.10
2018-11-25T00:55:57.034Z,71.07
2018-11-25T00:58:22.104Z,71.37
2018-11-25T01:00:47.200Z,71.29
2018-11-25T01:03:12.302Z,71.29
2018-11-25T01:05:37.432Z,71.63
2018-11-25T01:08:02.619Z,71.39
2018-11-25T01:10:27.750Z,71.36
2018-11-25T01:12:52.814Z,72.12
2018-11-25T01:15:18.600Z,71.92
2018-11-25T01:17:43.780Z,71.69
2018-11-25T01:20:28.808Z,71.85
2018-11-25T01:22:53.887Z,71.54
2018-11-25T01:25:18.968Z,71.52
2018-11-25T01:27:44.076Z,71.58
2018-11-25T01:30:29.054Z,72.11
2018-11-25T01:32:54.158Z,71.71
2018-11-25T01:35:19.282Z,71.48
2018-11-25T01:37:44.457Z,71.75
2018-11-25T01:40:28.590Z,72.16
2018-11-25T01:42:53.816Z,71.67
2018-11-25T01:45:19.253Z,71.40
2018-11-25T01:47:44.373Z,71.34
2018-11-25T01:50:10.990Z,71.24
2018-11-25T01:52:36.122Z,71.42
2018-11-25T01:55:01.206Z,71.34
2018-11-25T01:57:26.325Z,71.45
2018-11-25T01:59:51.421Z,71.64
2018-11-25T02:02:16.504Z,71.53
2018-11-25T02:09:56.487Z,71.62
2018-11-25T02:12:21.599Z,72.41
2018-11-25T02:14:46.710Z,71.99
2018-11-25T02:17:11.825Z,71.92
2018-11-25T02:19:36.903Z,71.57
2018-11-25T02:22:02.016Z,71.38
2018-11-25T02:24:27.081Z,71.72
2018-11-25T02:27:03.857Z,71.71
2018-11-25T02:34:42.257Z,71.65
2018-11-25T02:37:07.521Z,71.49
2018-11-25T02:39:32.604Z,71.36
2018-11-25T02:41:57.666Z,71.42
2018-11-25T02:44:22.834Z,71.57
2018-11-25T02:46:47.882Z,71.53
2018-11-25T02:49:12.970Z,71.56
2018-11-25T02:51:38.045Z,71.43
2018-11-25T02:54:03.102Z,71.65
2018-11-25T02:56:28.235Z,71.27
2018-11-25T02:58:53.275Z,71.42
2018-11-25T03:01:18.461Z,71.82
2018-11-25T03:03:43.560Z,71.81
2018-11-25T03:06:08.649Z,71.61
2018-11-25T03:08:33.790Z,71.63
2018-11-25T03:10:58.908Z,71.59
2018-11-25T03:13:24.089Z,71.53
2018-11-25T03:15:49.146Z,72.03
2018-11-25T03:20:52.984Z,71.54
2018-11-25T03:23:18.363Z,71.64
2018-11-25T03:25:43.426Z,71.49
2018-11-25T03:28:08.495Z,71.67
2018-11-25T03:30:33.594Z,71.43
2018-11-25T03:32:58.668Z,71.60
2018-11-25T03:35:23.767Z,71.55
2018-11-25T03:37:51.208Z,71.97
2018-11-25T03:40:17.229Z,71.67
2018-11-25T03:42:42.329Z,72.08
2018-11-25T03:45:27.883Z,71.57
2018-11-25T03:47:52.937Z,71.73
2018-11-25T03:50:18.103Z,71.38
2018-11-25T03:52:43.149Z,71.17
2018-11-25T03:55:20.291Z,71.21
2018-11-25T03:57:45.394Z,71.42
2018-11-25T04:00:32.891Z,71.36
2018-11-25T04:02:57.954Z,71.48
2018-11-25T04:05:23.012Z,71.32
2018-11-25T04:07:48.403Z,71.98
2018-11-25T04:10:32.501Z,71.83
2018-11-25T04:12:57.628Z,71.78
2018-11-25T04:15:22.689Z,71.60
2018-11-25T04:17:48.109Z,71.77
2018-11-25T04:20:14.420Z,71.87
2018-11-25T04:22:39.690Z,72.17
2018-11-25T04:25:04.759Z,71.66
2018-11-25T04:27:30.001Z,71.49
2018-11-25T04:29:54.894Z,71.53
2018-11-25T04:32:19.969Z,71.53
2018-11-25T04:34:45.016Z,71.76
2018-11-25T04:37:10.096Z,71.35
2018-11-25T04:39:35.145Z,71.46
2018-11-25T04:42:00.181Z,72.09
2018-11-25T04:44:25.297Z,71.50
2018-11-25T04:46:50.325Z,71.53
2018-11-25T04:49:15.408Z,71.42
2018-11-25T04:51:40.433Z,71.67
2018-11-25T04:54:05.565Z,71.33
2018-11-25T04:56:30.619Z,71.19
2018-11-25T04:58:55.661Z,71.00
2018-11-25T05:01:39.766Z,71.30
2018-11-25T05:04:04.825Z,71.37
2018-11-25T05:06:29.922Z,71.20
2018-11-25T05:08:55.102Z,71.01
2018-11-25T05:14:15.955Z,71.26
2018-11-25T05:16:41.007Z,71.33
2018-11-25T05:19:06.115Z,71.30
2018-11-25T05:21:31.217Z,71.25
2018-11-25T05:23:56.275Z,71.13
2018-11-25T05:26:21.407Z,71.34
2018-11-25T05:28:46.477Z,70.98
2018-11-25T05:31:11.521Z,71.42
2018-11-25T05:33:36.576Z,71.05
2018-11-25T05:36:01.864Z,71.02
2018-11-25T05:38:26.960Z,71.43
2018-11-25T05:40:52.019Z,71.49
2018-11-25T05:43:17.114Z,71.15
2018-11-25T05:45:42.171Z,71.74
2018-11-25T05:48:07.341Z,71.31
2018-11-25T05:50:32.428Z,71.29
2018-11-25T05:52:57.489Z,71.77
2018-11-25T05:55:22.554Z,71.62
2018-11-25T05:57:47.644Z,71.41
2018-11-25T06:00:41.377Z,71.06
2018-11-25T06:03:06.448Z,71.39
2018-11-25T06:05:31.557Z,71.27
2018-11-25T06:07:56.663Z,71.07
2018-11-25T06:10:21.752Z,71.43
2018-11-25T06:12:46.839Z,71.52
2018-11-25T06:15:12.929Z,71.33
2018-11-25T06:17:45.649Z,71.42
2018-11-25T06:20:30.614Z,71.66
2018-11-25T06:22:55.655Z,71.33
2018-11-25T06:25:21.657Z,71.28
2018-11-25T06:27:46.695Z,71.50
2018-11-25T06:30:30.783Z,71.89
2018-11-25T06:32:55.842Z,71.39
2018-11-25T06:35:21.205Z,71.26
2018-11-25T06:40:23.108Z,71.34
2018-11-25T06:42:59.740Z,71.50
2018-11-25T06:45:43.836Z,71.52
2018-11-25T06:48:09.041Z,71.25
2018-11-25T06:50:34.088Z,70.95
2018-11-25T06:52:59.135Z,71.31
2018-11-25T06:55:24.191Z,71.37
2018-11-25T06:57:49.233Z,71.23
2018-11-25T07:00:15.594Z,71.25
2018-11-25T07:02:40.664Z,71.40
2018-11-25T07:05:05.806Z,71.12
2018-11-25T07:07:30.871Z,71.21
2018-11-25T07:09:55.929Z,71.01
2018-11-25T07:12:21.007Z,71.23
2018-11-25T07:14:46.056Z,71.05
2018-11-25T07:17:11.099Z,71.46
2018-11-25T07:19:36.136Z,71.65
2018-11-25T07:22:01.184Z,71.24
2018-11-25T07:24:26.236Z,71.11
2018-11-25T07:26:51.333Z,71.18
2018-11-25T07:29:16.375Z,71.32
2018-11-25T07:31:41.451Z,72.49
2018-11-25T07:34:06.555Z,71.42
2018-11-25T07:36:31.596Z,71.34
2018-11-25T07:38:56.679Z,71.02
2018-11-25T07:41:21.748Z,71.17
2018-11-25T07:43:46.809Z,71.16
2018-11-25T07:46:11.899Z,71.45
2018-11-25T07:51:13.035Z,71.21
2018-11-25T07:53:38.063Z,71.46
2018-11-25T07:56:03.145Z,71.69
2018-11-25T07:58:40.785Z,71.43
2018-11-25T08:01:05.798Z,71.49
2018-11-25T08:03:30.880Z,71.15
2018-11-25T08:05:56.026Z,71.26
2018-11-25T08:08:21.100Z,71.67
2018-11-25T08:10:46.247Z,71.87
2018-11-25T08:13:11.301Z,71.55
2018-11-25T08:15:55.350Z,71.27
2018-11-25T08:18:20.437Z,71.77
2018-11-25T08:20:45.492Z,71.66
2018-11-25T08:23:10.588Z,71.81
2018-11-25T08:25:35.650Z,71.56
2018-11-25T08:28:00.732Z,71.40
2018-11-25T08:30:25.852Z,71.42
2018-11-25T08:32:51.024Z,71.83
2018-11-25T08:35:16.609Z,71.83
2018-11-25T08:37:41.669Z,71.61
2018-11-25T08:40:27.924Z,71.65
2018-11-25T08:42:53.045Z,71.50
2018-11-25T08:45:18.113Z,71.58
2018-11-25T08:47:43.258Z,71.93
2018-11-25T08:50:27.395Z,72.13
2018-11-25T08:52:55.214Z,71.78
2018-11-25T08:55:21.349Z,71.86
2018-11-25T08:57:46.574Z,71.65
2018-11-25T09:00:21.376Z,72.28
2018-11-25T09:02:46.523Z,72.15
2018-11-25T09:05:12.750Z,73.03
2018-11-25T09:07:37.832Z,72.73
2018-11-25T09:10:02.930Z,72.34
2018-11-25T09:12:28.054Z,71.86
2018-11-25T09:14:53.208Z,72.02
2018-11-25T09:17:20.825Z,72.52
2018-11-25T09:19:45.947Z,72.58
2018-11-25T09:22:11.033Z,72.66
2018-11-25T09:24:36.113Z,72.26
2018-11-25T09:27:01.239Z,72.11
2018-11-25T09:29:26.345Z,72.03
2018-11-25T09:31:51.450Z,71.84
2018-11-25T09:34:16.506Z,71.72
2018-11-25T09:36:41.582Z,72.10
2018-11-25T09:39:09.114Z,71.81
2018-11-25T09:41:34.196Z,71.50
2018-11-25T09:43:59.310Z,72.42
2018-11-25T09:46:24.454Z,72.28
2018-11-25T09:48:49.564Z,72.95
2018-11-25T09:51:14.588Z,72.44
2018-11-25T09:53:39.714Z,72.22
2018-11-25T09:56:04.837Z,72.26
2018-11-25T09:58:29.903Z,72.26
2018-11-25T10:00:55.049Z,72.57
2018-11-25T10:03:20.120Z,72.53
2018-11-25T10:05:45.258Z,72.96
2018-11-25T10:08:10.329Z,72.99
2018-11-25T10:10:35.466Z,73.11
2018-11-25T10:13:00.575Z,72.84
2018-11-25T10:15:26.802Z,72.88
2018-11-25T10:17:59.033Z,72.22
2018-11-25T10:20:36.057Z,73.39
2018-11-25T10:23:01.229Z,73.32
2018-11-25T10:25:26.293Z,73.21
2018-11-25T10:27:51.376Z,73.42
2018-11-25T10:30:35.512Z,73.12
2018-11-25T10:33:04.822Z,72.86
2018-11-25T10:35:29.923Z,72.30
2018-11-25T10:38:13.944Z,71.77
2018-11-25T10:40:39.355Z,72.09
2018-11-25T10:43:04.435Z,71.79
2018-11-25T10:45:29.806Z,71.90
2018-11-25T10:47:55.022Z,72.99
2018-11-25T10:50:20.761Z,73.33
2018-11-25T10:52:45.872Z,73.13
2018-11-25T10:55:12.202Z,73.11
2018-11-25T10:57:37.301Z,71.99
2018-11-25T11:00:02.426Z,72.45
2018-11-25T11:02:46.194Z,71.98
2018-11-25T11:05:11.296Z,72.13
2018-11-25T11:07:55.378Z,72.06
2018-11-25T11:10:20.527Z,71.88
2018-11-25T11:12:45.606Z,72.04
2018-11-25T11:15:12.146Z,72.06
2018-11-25T11:17:37.224Z,72.02
2018-11-25T11:20:02.340Z,72.64
2018-11-25T11:22:27.430Z,72.98
2018-11-25T11:24:52.497Z,73.45
2018-11-25T11:27:17.601Z,73.07
2018-11-25T11:29:42.772Z,73.84
2018-11-25T11:32:07.833Z,73.71
2018-11-25T11:34:32.960Z,72.67
2018-11-25T11:36:58.052Z,72.28
2018-11-25T11:39:23.159Z,71.96
2018-11-25T11:41:48.231Z,72.00
2018-11-25T11:44:13.349Z,72.75
2018-11-25T11:46:38.469Z,72.96
2018-11-25T11:49:03.599Z,73.42
2018-11-25T11:51:28.799Z,72.51
2018-11-25T11:53:53.886Z,72.57
2018-11-25T11:56:18.969Z,72.70
2018-11-25T11:58:44.133Z,72.46
2018-11-25T12:01:09.636Z,72.81
2018-11-25T12:03:34.834Z,73.60
2018-11-25T12:05:59.943Z,73.33
2018-11-25T12:08:25.035Z,73.17
2018-11-25T12:10:50.216Z,73.65
2018-11-25T12:13:15.353Z,73.05
2018-11-25T12:15:40.473Z,73.60
2018-11-25T12:18:05.862Z,73.09
2018-11-25T12:20:32.139Z,73.68
2018-11-25T12:22:57.716Z,73.03
2018-11-25T12:25:22.850Z,73.30
2018-11-25T12:27:50.265Z,73.49
2018-11-25T12:30:34.376Z,73.05
2018-11-25T12:32:59.608Z,73.52
2018-11-25T12:35:24.738Z,72.78
2018-11-25T12:37:49.866Z,72.26
2018-11-25T12:40:19.022Z,72.53
2018-11-25T12:43:03.541Z,72.81
2018-11-25T12:45:28.791Z,72.42
2018-11-25T12:50:30.767Z,73.56
2018-11-25T12:52:56.235Z,73.32
2018-11-25T12:55:22.499Z,73.00
2018-11-25T12:57:47.592Z,72.78
2018-11-25T13:00:32.536Z,72.52
2018-11-25T13:02:57.956Z,72.57
2018-11-25T13:05:23.201Z,72.39
2018-11-25T13:07:48.546Z,73.42
2018-11-25T13:10:13.951Z,73.05
2018-11-25T13:12:39.059Z,73.39
2018-11-25T13:15:04.183Z,73.41
2018-11-25T13:17:29.310Z,73.77
2018-11-25T13:19:54.413Z,73.46
2018-11-25T13:22:19.755Z,72.77
2018-11-25T13:24:44.825Z,72.51
2018-11-25T13:29:47.513Z,72.20
2018-11-25T13:32:12.822Z,72.93
2018-11-25T13:34:38.121Z,73.18
2018-11-25T13:37:03.289Z,72.68
2018-11-25T13:39:30.223Z,72.63
2018-11-25T13:41:54.153Z,73.11
2018-11-25T13:44:19.302Z,73.12
2018-11-25T13:46:44.398Z,72.70
2018-11-25T13:49:09.732Z,72.01
2018-11-25T13:51:35.019Z,72.44
2018-11-25T13:54:00.695Z,72.65
2018-11-25T13:56:26.059Z,72.43
2018-11-25T13:58:51.360Z,72.66
2018-11-25T14:01:16.479Z,72.34
2018-11-25T14:03:42.897Z,72.92
2018-11-25T14:06:27.005Z,72.32
2018-11-25T14:08:53.888Z,72.31
2018-11-25T14:11:18.961Z,72.89
2018-11-25T14:13:44.103Z,72.75
2018-11-25T14:16:10.859Z,73.35
2018-11-25T14:18:35.964Z,73.04
2018-11-25T14:21:01.065Z,72.89
2018-11-25T14:23:26.206Z,73.31
2018-11-25T14:25:51.505Z,72.81
2018-11-25T14:28:17.336Z,73.68
2018-11-25T14:30:42.434Z,72.93
2018-11-25T14:33:08.097Z,72.90
2018-11-25T14:35:33.254Z,73.01
2018-11-25T14:37:58.343Z,72.50
2018-11-25T14:40:23.474Z,73.19
2018-11-25T14:42:48.575Z,72.92
2018-11-25T14:45:14.839Z,72.54
2018-11-25T14:47:40.016Z,72.51
2018-11-25T14:50:06.138Z,73.88
2018-11-25T14:52:31.231Z,73.21
2018-11-25T14:54:56.333Z,72.83
2018-11-25T14:57:21.443Z,73.35
2018-11-25T14:59:46.553Z,73.54
2018-11-25T15:02:11.687Z,73.59
2018-11-25T15:04:36.801Z,73.71
2018-11-25T15:07:01.920Z,73.96
2018-11-25T15:09:26.994Z,73.89
2018-11-25T15:11:52.097Z,73.73
2018-11-25T15:14:17.264Z,74.53
2018-11-25T15:19:19.268Z,74.87
2018-11-25T15:21:44.402Z,74.27
2018-11-25T15:24:09.499Z,73.63
2018-11-25T15:26:34.621Z,74.73
2018-11-25T15:28:59.738Z,74.51
2018-11-25T15:34:01.656Z,74.66
2018-11-25T15:36:45.719Z,74.87
2018-11-25T15:39:12.359Z,74.41
2018-11-25T15:41:37.497Z,73.97
2018-11-25T15:44:02.620Z,74.01
2018-11-25T15:46:27.744Z,73.79
2018-11-25T15:48:52.854Z,73.72
2018-11-25T15:51:18.015Z,73.58
2018-11-25T15:53:43.149Z,73.71
2018-11-25T15:56:27.337Z,74.61
2018-11-25T15:58:52.438Z,75.58
2018-11-25T16:01:17.541Z,75.44
2018-11-25T16:03:42.642Z,75.64
2018-11-25T16:06:45.725Z,74.30
2018-11-25T16:09:11.051Z,74.95
2018-11-25T16:11:36.211Z,73.97
2018-11-25T16:14:01.366Z,73.52
2018-11-25T16:16:26.526Z,73.81
2018-11-25T16:18:51.669Z,73.51
2018-11-25T16:21:16.750Z,73.15
2018-11-25T16:23:41.857Z,73.31
2018-11-25T16:26:30.124Z,73.30
2018-11-25T16:28:57.292Z,72.91
2018-11-25T16:31:22.414Z,73.18
2018-11-25T16:33:47.578Z,73.13
2018-11-25T16:36:12.679Z,73.77
2018-11-25T16:38:37.863Z,73.64
2018-11-25T16:41:02.986Z,73.65
2018-11-25T16:43:28.193Z,73.76
2018-11-25T16:45:53.256Z,74.38
2018-11-25T16:48:37.326Z,73.48
2018-11-25T16:51:02.436Z,73.58
2018-11-25T16:53:27.582Z,73.40
2018-11-25T16:55:52.752Z,73.51
2018-11-25T16:58:17.899Z,73.26
2018-11-25T17:00:43.184Z,73.20
2018-11-25T17:03:08.588Z,73.28
2018-11-25T17:05:35.513Z,73.33
2018-11-25T17:08:12.139Z,73.58
2018-11-25T17:10:37.323Z,74.80
2018-11-25T17:13:02.429Z,73.68
2018-11-25T17:15:28.960Z,73.54
2018-11-25T17:17:54.091Z,73.12
2018-11-25T17:20:19.528Z,73.80
2018-11-25T17:22:44.644Z,73.71
2018-11-25T17:25:12.005Z,73.68
2018-11-25T17:27:36.574Z,74.38
2018-11-25T17:30:01.681Z,74.51
2018-11-25T17:32:27.078Z,74.52
2018-11-25T17:34:52.147Z,73.97
2018-11-25T17:37:17.240Z,73.66
2018-11-25T17:39:42.371Z,73.64
2018-11-25T17:42:07.649Z,74.40
2018-11-25T17:44:32.816Z,74.40
2018-11-25T17:46:57.954Z,74.71
2018-11-25T17:49:23.056Z,74.29
2018-11-25T17:51:48.193Z,74.51
2018-11-25T17:54:13.327Z,73.68
2018-11-25T17:56:38.443Z,73.82
2018-11-25T17:59:03.787Z,74.82
2018-11-25T18:01:28.945Z,74.59
2018-11-25T18:03:54.061Z,74.74
2018-11-25T18:06:19.157Z,74.22
2018-11-25T18:08:44.299Z,73.72
2018-11-25T18:11:09.400Z,73.83
2018-11-25T18:13:54.624Z,73.88
2018-11-25T18:16:19.754Z,74.01
2018-11-25T18:18:53.761Z,74.43
2018-11-25T18:21:23.550Z,74.43
2018-11-25T18:23:48.712Z,74.06
2018-11-25T18:26:13.820Z,73.54
2018-11-25T18:28:38.946Z,74.92
2018-11-25T18:31:04.091Z,74.48
2018-11-25T18:33:29.342Z,74.14
2018-11-25T18:35:54.439Z,74.42
2018-11-25T18:38:19.599Z,74.37
2018-11-25T18:40:44.708Z,74.61
2018-11-25T18:43:09.922Z,74.87
2018-11-25T18:45:35.128Z,75.03
2018-11-25T18:48:00.307Z,74.15
2018-11-25T18:50:25.437Z,74.29
2018-11-25T18:52:51.970Z,74.11
2018-11-25T18:55:15.314Z,73.78
2018-11-25T18:57:40.581Z,74.41
2018-11-25T19:00:08.828Z,74.39
2018-11-25T19:02:52.991Z,74.21
2018-11-25T19:05:18.128Z,74.04
2018-11-25T19:07:43.422Z,74.06
2018-11-25T19:10:15.710Z,74.49
2018-11-25T19:12:44.372Z,74.47
2018-11-25T19:15:07.058Z,73.55
2018-11-25T19:17:32.203Z,73.34
2018-11-25T19:19:57.309Z,74.46
2018-11-25T19:22:22.537Z,74.88
2018-11-25T19:24:47.723Z,74.34
2018-11-25T19:27:12.857Z,75.29
2018-11-25T19:29:38.062Z,75.14
2018-11-25T19:32:03.190Z,74.88
2018-11-25T19:34:28.336Z,75.86
2018-11-25T19:36:53.457Z,75.23
2018-11-25T19:39:18.659Z,75.68
2018-11-25T19:41:43.753Z,76.22
2018-11-25T19:44:08.848Z,75.02
2018-11-25T19:46:33.979Z,74.11
2018-11-25T19:48:59.084Z,74.29
2018-11-25T19:51:24.328Z,74.42
2018-11-25T19:53:49.452Z,74.51
2018-11-25T19:56:14.959Z,75.18
2018-11-25T19:58:40.026Z,75.28
2018-11-25T20:01:05.199Z,74.48
2018-11-25T20:03:30.456Z,75.14
2018-11-25T20:05:55.629Z,74.88
2018-11-25T20:08:20.809Z,74.91
2018-11-25T20:10:45.968Z,74.40
2018-11-25T20:13:11.992Z,75.06
2018-11-25T20:15:36.799Z,75.56
2018-11-25T20:18:01.922Z,74.43
2018-11-25T20:20:27.859Z,74.30
2018-11-25T20:22:53.465Z,73.95
2018-11-25T20:25:18.953Z,73.91
2018-11-25T20:27:48.722Z,74.10
2018-11-25T20:30:14.929Z,74.20
2018-11-25T20:32:58.757Z,74.38
2018-11-25T20:35:23.953Z,74.44
2018-11-25T20:38:07.781Z,73.51
2018-11-25T20:40:32.983Z,74.12
2018-11-25T20:42:58.064Z,74.30
2018-11-25T20:45:42.346Z,75.46
2018-11-25T20:48:07.491Z,74.22
2018-11-25T20:50:32.618Z,74.23
2018-11-25T20:53:16.460Z,74.24
2018-11-25T20:55:41.543Z,73.49
2018-11-25T20:58:08.426Z,73.83
2018-11-25T21:00:45.250Z,74.35
2018-11-25T21:03:11.698Z,74.89
2018-11-25T21:05:36.784Z,74.34
2018-11-25T21:08:02.013Z,74.78
2018-11-25T21:10:27.252Z,74.05
2018-11-25T21:12:53.655Z,74.45
2018-11-25T21:15:18.781Z,72.95
2018-11-25T21:17:43.845Z,74.20
2018-11-25T21:20:28.604Z,74.50
2018-11-25T21:22:53.736Z,73.38
2018-11-25T21:25:19.944Z,73.11
2018-11-25T21:27:45.093Z,73.10
2018-11-25T21:30:41.869Z,73.55
2018-11-25T21:33:07.871Z,73.59
2018-11-25T21:35:33.009Z,74.07
2018-11-25T21:37:58.166Z,73.75
2018-11-25T21:40:41.109Z,72.93
2018-11-25T21:43:06.745Z,73.54
2018-11-25T21:45:31.872Z,73.16
2018-11-25T21:47:58.041Z,73.67
2018-11-25T21:50:23.531Z,72.92
2018-11-25T21:52:48.620Z,74.42
2018-11-25T21:55:17.517Z,73.33
2018-11-25T21:57:42.673Z,74.36
2018-11-25T22:00:28.709Z,74.96
2018-11-25T22:02:53.795Z,74.10
2018-11-25T22:05:20.071Z,73.23
2018-11-25T22:10:25.236Z,72.64
2018-11-25T22:12:50.609Z,72.58
2018-11-25T22:15:35.260Z,72.60
2018-11-25T22:18:00.376Z,72.90
2018-11-25T22:20:25.482Z,73.24
2018-11-25T22:22:50.871Z,73.03
2018-11-25T22:25:34.969Z,73.35
2018-11-25T22:28:00.051Z,72.99
2018-11-25T22:30:25.456Z,72.41
2018-11-25T22:32:50.600Z,73.11
2018-11-25T22:35:16.911Z,72.99
2018-11-25T22:37:42.219Z,73.21
2018-11-25T22:40:08.975Z,73.63
2018-11-25T22:42:34.072Z,73.37
2018-11-25T22:44:59.202Z,72.80
2018-11-25T22:47:24.344Z,72.24
2018-11-25T22:49:49.441Z,72.19
2018-11-25T22:52:14.539Z,72.20
2018-11-25T22:54:39.613Z,73.01
2018-11-25T22:57:04.719Z,73.26
2018-11-25T22:59:29.818Z,73.41
2018-11-25T23:01:54.958Z,72.60
2018-11-25T23:04:58.019Z,72.64
2018-11-25T23:07:23.190Z,73.00
2018-11-25T23:09:48.284Z,72.31
2018-11-25T23:12:13.792Z,71.95
2018-11-25T23:14:38.866Z,72.15
2018-11-25T23:17:03.954Z,72.43
2018-11-25T23:19:29.034Z,73.12
2018-11-25T23:21:54.111Z,72.60
2018-11-25T23:24:19.158Z,72.75
2018-11-25T23:26:44.213Z,72.57
2018-11-25T23:29:09.311Z,73.50
2018-11-25T23:31:34.380Z,73.42
2018-11-25T23:33:59.425Z,73.04
2018-11-25T23:36:24.531Z,72.36
2018-11-25T23:41:26.260Z,72.13
2018-11-25T23:43:51.338Z,72.38
2018-11-25T23:46:16.409Z,72.92
2018-11-25T23:48:41.532Z,72.12
2018-11-25T23:51:07.021Z,71.97
2018-11-25T23:53:32.143Z,72.26
2018-11-25T23:55:57.185Z,72.19
2018-11-25T23:58:22.253Z,72.04
